createdAt,value
2022-12-23T00:02:14.257Z,32.51
2022-12-23T00:04:43.495Z,33.96
2022-12-23T00:07:12.838Z,32.77
2022-12-23T00:09:42.020Z,34.01
2022-12-23T00:12:29.555Z,36.65
2022-12-23T00:15:07.734Z,37.80
2022-12-23T00:17:40.084Z,37.07
2022-12-23T00:20:12.014Z,38.16
2022-12-23T00:23:00.269Z,38.19
2022-12-23T00:25:47.408Z,39.74
2022-12-23T00:28:23.585Z,38.87
2022-12-23T00:31:12.539Z,38.55
2022-12-23T00:33:44.820Z,36.98
2022-12-23T00:36:14.660Z,37.55
2022-12-23T00:39:02.081Z,38.93
2022-12-23T00:41:49.529Z,38.44
2022-12-23T00:44:18.913Z,39.27
2022-12-23T00:46:48.037Z,40.15
2022-12-23T00:49:38.124Z,40.94
2022-12-23T00:52:10.367Z,39.00
2022-12-23T00:54:40.301Z,37.83
2022-12-23T00:57:09.765Z,36.82
2022-12-23T00:59:39.046Z,38.52
2022-12-23T01:02:26.845Z,38.25
2022-12-23T01:05:14.501Z,38.26
2022-12-23T01:07:43.965Z,38.79
2022-12-23T01:10:13.333Z,39.28
2022-12-23T01:12:42.424Z,40.52
2022-12-23T01:15:12.185Z,40.43
2022-12-23T01:17:41.657Z,39.32
2022-12-23T01:20:11.467Z,39.24
2022-12-23T01:22:40.953Z,40.10
2022-12-23T01:25:10.656Z,40.10
2022-12-23T01:27:40.172Z,39.16
2022-12-23T01:30:10.338Z,40.04
2022-12-23T01:32:39.935Z,41.78
2022-12-23T01:35:09.352Z,40.30
2022-12-23T01:37:38.837Z,39.02
2022-12-23T01:40:08.920Z,37.42
2022-12-23T01:42:44.841Z,37.39
2022-12-23T01:45:19.227Z,40.10
2022-12-23T01:47:57.237Z,41.60
2022-12-23T01:51:07.939Z,42.80
2022-12-23T01:53:42.013Z,42.39
2022-12-23T01:56:24.971Z,42.11
2022-12-23T01:59:04.198Z,40.83
2022-12-23T02:01:51.964Z,40.84
2022-12-23T02:04:26.227Z,40.87
2022-12-23T02:07:13.639Z,42.21
2022-12-23T02:09:42.966Z,42.52
2022-12-23T02:12:43.887Z,43.65
2022-12-23T02:15:49.588Z,42.61
2022-12-23T02:18:19.019Z,43.34
2022-12-23T02:21:24.504Z,43.21
2022-12-23T02:24:31.283Z,43.36
2022-12-23T02:27:04.204Z,42.75
2022-12-23T02:30:02.796Z,43.78
2022-12-23T02:32:51.006Z,39.13
2022-12-23T02:35:44.889Z,39.53
2022-12-23T02:38:22.937Z,40.35
2022-12-23T02:41:28.121Z,37.93
2022-12-23T02:44:32.345Z,35.76
2022-12-23T02:47:11.931Z,34.99
2022-12-23T02:49:50.684Z,34.49
2022-12-23T02:52:23.485Z,33.53
2022-12-23T02:54:58.769Z,35.26
2022-12-23T02:57:33.902Z,33.75
2022-12-23T03:00:05.225Z,34.31
2022-12-23T03:02:40.574Z,33.82
2022-12-23T03:05:41.611Z,34.41
2022-12-23T03:08:44.282Z,32.48
2022-12-23T03:11:17.378Z,34.68
2022-12-23T03:13:55.113Z,35.14
2022-12-23T03:16:56.189Z,33.74
2022-12-23T03:19:40.782Z,35.26
2022-12-23T03:22:42.767Z,33.14
2022-12-23T03:25:26.086Z,35.21
2022-12-23T03:28:05.798Z,35.04
2022-12-23T03:30:37.606Z,33.28
2022-12-23T03:33:15.316Z,34.15
2022-12-23T03:35:57.005Z,35.04
2022-12-23T03:38:27.615Z,34.74
2022-12-23T03:41:03.222Z,35.27
2022-12-23T03:43:50.716Z,35.39
2022-12-23T03:47:00.237Z,35.48
2022-12-23T03:49:39.489Z,36.21
2022-12-23T03:52:21.701Z,35.79
2022-12-23T03:54:57.127Z,36.14
2022-12-23T03:57:41.835Z,37.71
2022-12-23T04:00:13.107Z,35.72
2022-12-23T04:02:55.478Z,35.46
2022-12-23T04:05:42.324Z,36.60
2022-12-23T04:08:36.527Z,36.68
2022-12-23T04:11:07.333Z,36.26
2022-12-23T04:13:37.000Z,38.08
2022-12-23T04:16:08.861Z,37.05
2022-12-23T04:18:39.353Z,36.85
2022-12-23T04:21:08.919Z,36.64
2022-12-23T04:23:38.196Z,37.13
2022-12-23T04:26:07.734Z,38.26
2022-12-23T04:28:37.046Z,37.66
2022-12-23T04:31:06.768Z,38.44
2022-12-23T04:33:36.191Z,37.26
2022-12-23T04:36:05.930Z,37.50
2022-12-23T04:38:35.207Z,36.55
2022-12-23T04:41:04.727Z,36.20
2022-12-23T04:43:34.074Z,36.11
2022-12-23T04:46:03.462Z,35.87
2022-12-23T04:48:32.836Z,35.91
2022-12-23T04:51:04.459Z,34.18
2022-12-23T04:53:33.827Z,35.81
2022-12-23T04:56:03.281Z,37.06
2022-12-23T04:58:32.618Z,34.49
2022-12-23T05:01:10.773Z,33.99
2022-12-23T05:03:41.533Z,34.17
2022-12-23T05:06:11.288Z,34.68
2022-12-23T05:08:40.821Z,34.34
2022-12-23T05:11:10.277Z,35.17
2022-12-23T05:13:39.499Z,35.66
2022-12-23T05:16:09.208Z,35.32
2022-12-23T05:18:38.985Z,34.43
2022-12-23T05:21:08.312Z,35.01
2022-12-23T05:23:37.570Z,33.77
2022-12-23T05:26:07.600Z,34.28
2022-12-23T05:28:37.163Z,34.75
2022-12-23T05:31:09.181Z,33.62
2022-12-23T05:33:42.578Z,33.06
2022-12-23T05:36:14.031Z,32.34
2022-12-23T05:38:43.420Z,32.54
2022-12-23T05:41:12.828Z,32.75
2022-12-23T05:43:42.590Z,32.42
2022-12-23T05:46:11.879Z,32.55
2022-12-23T05:48:41.278Z,32.65
2022-12-23T05:51:10.670Z,33.17
2022-12-23T05:53:40.225Z,32.87
2022-12-23T05:56:12.632Z,32.73
2022-12-23T05:58:42.261Z,33.85
2022-12-23T06:01:11.666Z,32.54
2022-12-23T06:03:41.710Z,33.22
2022-12-23T06:06:11.232Z,34.09
2022-12-23T06:08:40.437Z,31.16
2022-12-23T06:11:09.799Z,31.47
2022-12-23T06:13:39.295Z,32.55
2022-12-23T06:16:09.117Z,32.07
2022-12-23T06:18:39.280Z,31.17
2022-12-23T06:21:09.075Z,31.14
2022-12-23T06:23:39.156Z,30.03
2022-12-23T06:26:08.833Z,31.89
2022-12-23T06:28:39.006Z,30.25
2022-12-23T06:31:08.759Z,29.13
2022-12-23T06:33:39.246Z,31.37
2022-12-23T06:36:10.146Z,30.48
2022-12-23T06:38:40.062Z,30.38
2022-12-23T06:41:09.680Z,32.26
2022-12-23T06:43:39.004Z,31.41
2022-12-23T06:46:08.742Z,27.74
2022-12-23T06:48:38.110Z,29.27
2022-12-23T06:51:12.144Z,28.41
2022-12-23T06:53:42.664Z,28.22
2022-12-23T06:56:11.958Z,27.61
2022-12-23T06:58:41.957Z,26.49
2022-12-23T07:01:11.166Z,28.59
2022-12-23T07:03:42.228Z,27.68
2022-12-23T07:06:12.061Z,26.86
2022-12-23T07:08:41.544Z,28.52
2022-12-23T07:11:10.763Z,26.87
2022-12-23T07:13:40.596Z,27.24
2022-12-23T07:16:10.967Z,28.46
2022-12-23T07:18:40.759Z,28.60
2022-12-23T07:21:21.181Z,29.29
2022-12-23T07:23:54.472Z,28.57
2022-12-23T07:26:23.691Z,27.97
2022-12-23T07:28:53.556Z,28.82
2022-12-23T07:31:23.225Z,24.92
2022-12-23T07:33:53.271Z,26.58
2022-12-23T07:36:22.688Z,25.82
2022-12-23T07:38:53.711Z,26.96
2022-12-23T07:41:23.642Z,28.16
2022-12-23T07:43:53.149Z,28.25
2022-12-23T07:46:22.972Z,26.23
2022-12-23T07:48:52.359Z,26.80
2022-12-23T07:51:21.749Z,27.50
2022-12-23T07:53:52.106Z,26.04
2022-12-23T07:56:21.877Z,25.29
2022-12-23T07:58:55.394Z,24.47
2022-12-23T08:01:25.193Z,24.49
2022-12-23T08:03:54.488Z,24.13
2022-12-23T08:06:23.845Z,23.27
2022-12-23T08:08:53.490Z,23.07
2022-12-23T08:11:22.625Z,22.85
2022-12-23T08:13:53.869Z,23.86
2022-12-23T08:16:23.676Z,24.41
2022-12-23T08:18:53.019Z,22.82
2022-12-23T08:21:22.571Z,25.35
2022-12-23T08:23:53.166Z,24.97
2022-12-23T08:26:25.839Z,25.84
2022-12-23T08:28:55.288Z,25.15
2022-12-23T08:31:31.058Z,24.34
2022-12-23T08:34:02.018Z,25.56
2022-12-23T08:36:37.219Z,28.90
2022-12-23T08:39:10.170Z,26.83
2022-12-23T08:41:45.937Z,25.48
2022-12-23T08:44:16.117Z,26.67
2022-12-23T08:46:45.905Z,22.89
2022-12-23T08:49:15.713Z,23.04
2022-12-23T08:51:45.466Z,24.05
2022-12-23T08:54:14.908Z,21.31
2022-12-23T08:56:45.076Z,23.60
2022-12-23T08:59:18.993Z,23.56
2022-12-23T09:01:49.327Z,23.24
2022-12-23T09:04:19.407Z,23.49
2022-12-23T09:06:48.915Z,23.60
2022-12-23T09:09:18.555Z,23.00
2022-12-23T09:11:48.077Z,25.02
2022-12-23T09:14:17.334Z,23.23
2022-12-23T09:16:46.979Z,25.42
2022-12-23T09:19:16.433Z,24.21
2022-12-23T09:21:46.064Z,25.24
2022-12-23T09:24:15.178Z,24.19
2022-12-23T09:26:44.747Z,25.87
2022-12-23T09:29:13.905Z,25.45
2022-12-23T09:31:43.549Z,25.53
2022-12-23T09:34:13.242Z,26.02
2022-12-23T09:36:42.894Z,25.85
2022-12-23T09:39:12.580Z,26.45
2022-12-23T09:41:56.993Z,26.90
2022-12-23T09:44:45.369Z,26.85
2022-12-23T09:47:20.132Z,26.54
2022-12-23T09:50:02.832Z,27.84
2022-12-23T09:52:39.333Z,27.86
2022-12-23T09:55:13.392Z,27.96
2022-12-23T09:58:02.065Z,30.12
2022-12-23T10:00:44.367Z,27.96
2022-12-23T10:03:30.502Z,27.96
2022-12-23T10:06:16.676Z,27.91
2022-12-23T10:08:55.005Z,29.46
2022-12-23T10:11:32.536Z,28.53
2022-12-23T10:14:10.821Z,29.35
2022-12-23T10:16:46.538Z,27.62
2022-12-23T10:19:21.780Z,24.89
2022-12-23T10:22:04.086Z,25.57
2022-12-23T10:24:40.432Z,25.35
2022-12-23T10:27:28.461Z,25.45
2022-12-23T10:30:20.004Z,27.48
2022-12-23T10:33:33.709Z,28.11
2022-12-23T10:36:22.266Z,30.44
2022-12-23T10:38:57.864Z,32.72
2022-12-23T10:41:43.718Z,34.77
2022-12-23T10:44:25.393Z,34.47
2022-12-23T10:47:13.932Z,35.57
2022-12-23T10:49:54.908Z,36.55
2022-12-23T10:52:29.195Z,36.90
2022-12-23T10:54:58.806Z,37.97
2022-12-23T10:57:28.055Z,39.16
2022-12-23T10:59:59.478Z,40.89
2022-12-23T11:02:51.074Z,42.11
2022-12-23T11:05:28.914Z,43.41
2022-12-23T11:07:58.881Z,44.47
2022-12-23T11:10:34.145Z,45.31
2022-12-23T11:13:03.632Z,46.16
2022-12-23T11:15:34.791Z,47.03
2022-12-23T11:18:24.332Z,47.62
2022-12-23T11:21:16.253Z,49.51
2022-12-23T11:23:45.698Z,50.19
2022-12-23T11:26:20.032Z,50.38
2022-12-23T11:28:52.336Z,51.13
2022-12-23T11:31:36.745Z,51.51
2022-12-23T11:34:18.062Z,52.91
2022-12-23T11:37:05.221Z,53.86
2022-12-23T11:39:38.997Z,54.17
2022-12-23T11:42:20.452Z,54.92
2022-12-23T11:44:54.147Z,55.26
2022-12-23T11:47:35.951Z,56.17
2022-12-23T11:50:36.566Z,56.54
2022-12-23T11:53:23.314Z,57.23
2022-12-23T11:56:10.448Z,58.26
2022-12-23T11:58:55.046Z,59.16
2022-12-23T12:01:26.617Z,59.27
2022-12-23T12:04:04.739Z,59.60
2022-12-23T12:06:34.923Z,60.09
2022-12-23T12:09:07.842Z,60.64
2022-12-23T12:11:47.897Z,60.80
2022-12-23T12:14:34.077Z,60.78
2022-12-23T12:17:33.202Z,60.66
2022-12-23T12:20:06.023Z,60.66
2022-12-23T12:22:53.079Z,60.84
2022-12-23T12:25:27.239Z,61.21
2022-12-23T12:28:05.658Z,61.32
2022-12-23T12:30:41.800Z,61.23
2022-12-23T12:33:19.404Z,60.83
2022-12-23T12:36:05.370Z,59.99
2022-12-23T12:38:39.557Z,60.32
2022-12-23T12:41:20.528Z,60.76
2022-12-23T12:44:00.350Z,60.71
2022-12-23T12:46:41.021Z,60.86
2022-12-23T12:49:42.507Z,60.96
2022-12-23T12:52:23.654Z,60.61
2022-12-23T12:55:14.653Z,61.21
2022-12-23T12:57:44.571Z,61.44
2022-12-23T13:00:23.242Z,61.77
2022-12-23T13:03:32.393Z,56.33
2022-12-23T13:06:39.147Z,54.50
2022-12-23T13:09:08.911Z,58.88
2022-12-23T13:11:59.548Z,58.41
2022-12-23T13:14:54.803Z,59.42
2022-12-23T13:17:37.535Z,59.39
2022-12-23T13:20:22.317Z,60.16
2022-12-23T13:23:06.330Z,60.39
2022-12-23T13:25:56.774Z,59.43
2022-12-23T13:28:52.422Z,59.79
2022-12-23T13:31:25.061Z,59.97
2022-12-23T13:34:35.381Z,55.97
2022-12-23T13:37:33.522Z,56.17
2022-12-23T13:40:32.428Z,55.75
2022-12-23T13:43:15.068Z,51.92
2022-12-23T13:45:47.951Z,53.15
2022-12-23T13:48:42.359Z,52.96
2022-12-23T13:51:22.862Z,52.81
2022-12-23T13:54:04.811Z,51.65
2022-12-23T13:56:50.097Z,51.22
2022-12-23T13:59:20.838Z,51.28
2022-12-23T14:01:53.614Z,51.14
2022-12-23T14:04:37.438Z,49.52
2022-12-23T14:07:23.632Z,48.35
2022-12-23T14:10:00.020Z,49.08
2022-12-23T14:12:36.967Z,49.08
2022-12-23T14:15:27.869Z,49.08
2022-12-23T14:18:18.723Z,49.45
2022-12-23T14:21:17.400Z,50.69
2022-12-23T14:24:21.918Z,50.48
2022-12-23T14:27:15.691Z,50.89
2022-12-23T14:30:12.044Z,50.78
2022-12-23T14:33:07.535Z,51.39
2022-12-23T14:35:42.698Z,51.68
2022-12-23T14:38:18.710Z,52.09
2022-12-23T14:40:48.244Z,51.48
2022-12-23T14:43:44.546Z,51.68
2022-12-23T14:46:52.412Z,51.71
2022-12-23T14:49:40.432Z,52.16
2022-12-23T14:52:44.838Z,51.82
2022-12-23T14:55:32.344Z,51.06
2022-12-23T14:58:10.674Z,51.51
2022-12-23T15:01:05.621Z,52.82
2022-12-23T15:03:50.775Z,54.39
2022-12-23T15:06:41.162Z,55.54
2022-12-23T15:09:28.768Z,55.94
2022-12-23T15:12:02.893Z,55.82
2022-12-23T15:15:03.403Z,56.52
2022-12-23T15:17:35.822Z,56.42
2022-12-23T15:20:25.810Z,56.93
2022-12-23T15:23:01.074Z,58.28
2022-12-23T15:25:34.848Z,59.41
2022-12-23T15:28:06.781Z,60.27
2022-12-23T15:30:48.524Z,60.13
2022-12-23T15:34:01.389Z,61.24
2022-12-23T15:36:29.531Z,60.42
2022-12-23T15:39:02.354Z,60.15
2022-12-23T15:41:32.712Z,59.48
2022-12-23T15:44:02.823Z,59.36
2022-12-23T15:46:34.090Z,59.19
2022-12-23T15:49:04.339Z,58.80
2022-12-23T15:54:41.847Z,57.61
2022-12-23T15:57:22.064Z,56.65
2022-12-23T15:59:56.158Z,56.97
2022-12-23T16:05:38.470Z,56.23
2022-12-23T16:08:14.605Z,55.83
2022-12-23T16:11:01.565Z,55.41
2022-12-23T16:13:33.716Z,54.59
2022-12-23T16:16:29.439Z,54.83
2022-12-23T16:19:00.035Z,54.03
2022-12-23T16:21:34.850Z,54.30
2022-12-23T16:24:10.708Z,53.75
2022-12-23T16:26:44.966Z,53.04
2022-12-23T16:29:19.980Z,53.14
2022-12-23T16:31:56.092Z,53.07
2022-12-23T16:34:33.252Z,52.32
2022-12-23T16:37:03.796Z,52.51
2022-12-23T16:39:34.440Z,51.70
2022-12-23T16:42:06.600Z,51.29
2022-12-23T16:44:36.879Z,51.19
2022-12-23T16:47:15.268Z,51.17
2022-12-23T16:49:47.693Z,50.77
2022-12-23T16:52:25.782Z,51.12
2022-12-23T16:54:56.487Z,50.74
2022-12-23T16:57:27.190Z,51.23
2022-12-23T16:59:57.671Z,51.42
2022-12-23T17:02:29.651Z,51.10
2022-12-23T17:04:59.920Z,51.24
2022-12-23T17:07:30.347Z,51.46
2022-12-23T17:10:04.077Z,51.42
2022-12-23T17:12:34.330Z,52.00
2022-12-23T17:15:05.632Z,51.90
2022-12-23T17:17:37.579Z,52.07
2022-12-23T17:20:08.641Z,51.90
2022-12-23T17:22:40.660Z,52.15
2022-12-23T17:25:19.828Z,51.42
2022-12-23T17:27:52.737Z,51.96
2022-12-23T17:30:26.666Z,52.65
2022-12-23T17:33:01.614Z,52.75
2022-12-23T17:35:32.196Z,52.73
2022-12-23T17:38:03.326Z,52.82
2022-12-23T17:40:33.805Z,53.03
2022-12-23T17:43:04.921Z,53.07
2022-12-23T17:45:35.366Z,52.65
2022-12-23T17:48:06.695Z,52.53
2022-12-23T17:50:37.848Z,52.85
2022-12-23T17:53:08.516Z,52.79
2022-12-23T17:55:38.911Z,53.63
2022-12-23T17:58:09.111Z,54.28
2022-12-23T18:00:40.682Z,54.41
2022-12-23T18:03:24.341Z,55.22
2022-12-23T18:06:01.669Z,56.08
2022-12-23T18:08:32.123Z,57.17
2022-12-23T18:11:02.242Z,57.50
2022-12-23T18:13:32.618Z,58.08
2022-12-23T18:16:02.385Z,58.13
2022-12-23T18:18:43.492Z,58.47
2022-12-23T18:21:27.288Z,59.19
2022-12-23T18:23:58.984Z,59.08
2022-12-23T18:26:28.796Z,58.76
2022-12-23T18:28:58.044Z,58.70
2022-12-23T18:31:28.264Z,59.20
2022-12-23T18:33:57.969Z,58.67
2022-12-23T18:36:31.247Z,59.49
2022-12-23T18:39:00.904Z,59.64
2022-12-23T18:41:30.284Z,59.92
2022-12-23T18:43:59.689Z,60.46
2022-12-23T18:46:29.132Z,60.57
2022-12-23T18:48:59.082Z,61.93
2022-12-23T18:51:28.333Z,62.04
2022-12-23T18:53:57.931Z,62.62
2022-12-23T18:56:27.097Z,63.79
2022-12-23T18:58:56.568Z,64.04
2022-12-23T19:01:25.951Z,64.85
2022-12-23T19:03:55.315Z,65.09
2022-12-23T19:06:24.652Z,65.67
2022-12-23T19:08:54.316Z,66.17
2022-12-23T19:11:24.194Z,68.08
2022-12-23T19:13:53.445Z,68.77
2022-12-23T19:16:23.457Z,70.15
2022-12-23T19:18:53.168Z,71.43
2022-12-23T19:21:22.446Z,73.00
2022-12-23T19:23:51.720Z,72.83
2022-12-23T19:26:20.791Z,73.54
2022-12-23T19:28:50.239Z,74.58
2022-12-23T19:31:20.057Z,75.72
2022-12-23T19:33:49.427Z,76.71
2022-12-23T19:36:26.541Z,77.09
2022-12-23T19:38:58.073Z,77.96
2022-12-23T19:41:27.326Z,76.85
2022-12-23T19:43:56.279Z,77.38
2022-12-23T19:46:26.073Z,78.32
2022-12-23T19:48:55.472Z,79.18
2022-12-23T19:51:25.048Z,79.70
2022-12-23T19:53:54.143Z,78.86
2022-12-23T19:56:23.625Z,78.38
2022-12-23T19:58:52.904Z,77.98
2022-12-23T20:01:26.004Z,78.17
2022-12-23T20:03:58.343Z,78.76
2022-12-23T20:06:31.527Z,77.16
2022-12-23T20:09:05.334Z,77.42
2022-12-23T20:11:37.803Z,76.29
2022-12-23T20:14:08.439Z,76.41
2022-12-23T20:16:39.348Z,77.12
2022-12-23T20:19:09.469Z,77.61
2022-12-23T20:21:38.932Z,76.58
2022-12-23T20:24:08.768Z,76.12
2022-12-23T20:26:38.075Z,75.59
2022-12-23T20:29:08.226Z,77.25
2022-12-23T20:31:39.539Z,77.40
2022-12-23T20:34:14.911Z,75.98
2022-12-23T20:36:44.558Z,73.65
2022-12-23T20:39:13.681Z,73.30
2022-12-23T20:41:43.550Z,73.10
2022-12-23T20:47:02.848Z,72.98
2022-12-23T20:49:32.254Z,72.59
2022-12-23T20:52:01.520Z,73.46
2022-12-23T20:54:33.626Z,73.87
2022-12-23T20:57:04.818Z,74.72
2022-12-23T20:59:34.356Z,75.69
2022-12-23T21:02:03.810Z,76.24
2022-12-23T21:04:33.534Z,76.15
2022-12-23T21:07:02.879Z,76.65
2022-12-23T21:09:32.416Z,76.65
2022-12-23T21:12:01.857Z,77.62
2022-12-23T21:14:31.333Z,78.69
2022-12-23T21:17:00.569Z,77.55
2022-12-23T21:19:30.146Z,75.77
2022-12-23T21:21:59.523Z,76.30
2022-12-23T21:24:28.749Z,76.49
2022-12-23T21:26:58.153Z,76.08
2022-12-23T21:29:28.197Z,75.01
2022-12-23T21:31:57.869Z,74.26
2022-12-23T21:34:27.090Z,73.66
2022-12-23T21:36:56.899Z,73.08
2022-12-23T21:39:26.225Z,72.70
2022-12-23T21:41:55.542Z,72.39
2022-12-23T21:44:27.782Z,72.32
2022-12-23T21:46:57.688Z,72.49
2022-12-23T21:49:27.039Z,73.60
2022-12-23T21:51:56.452Z,74.68
2022-12-23T21:54:25.607Z,73.86
2022-12-23T21:56:55.231Z,72.86
2022-12-23T21:59:28.249Z,72.94
2022-12-23T22:02:00.932Z,72.93
2022-12-23T22:04:30.413Z,72.35
2022-12-23T22:06:59.747Z,71.95
2022-12-23T22:09:28.984Z,71.10
2022-12-23T22:11:59.470Z,71.22
2022-12-23T22:14:30.193Z,70.63
2022-12-23T22:16:59.087Z,70.80
2022-12-23T22:19:28.853Z,71.38
2022-12-23T22:21:57.684Z,71.02
2022-12-23T22:24:26.754Z,71.18
2022-12-23T22:26:55.444Z,70.95
2022-12-23T22:29:24.840Z,70.52
2022-12-23T22:31:54.067Z,70.18
2022-12-23T22:34:23.960Z,70.30
2022-12-23T22:36:52.914Z,70.08
2022-12-23T22:39:22.487Z,70.06
2022-12-23T22:41:52.728Z,69.95
2022-12-23T22:44:21.996Z,69.71
2022-12-23T22:46:51.332Z,68.59
2022-12-23T22:49:20.390Z,66.20
2022-12-23T22:51:49.157Z,65.02
2022-12-23T22:54:18.051Z,63.93
2022-12-23T22:56:47.335Z,63.54
2022-12-23T22:59:26.729Z,62.75
2022-12-23T23:01:56.240Z,62.16
2022-12-23T23:04:24.903Z,61.62
2022-12-23T23:06:54.191Z,61.56
2022-12-23T23:09:24.155Z,62.03
2022-12-23T23:11:53.327Z,61.85
2022-12-23T23:14:22.632Z,61.75
2022-12-23T23:16:51.766Z,61.37
2022-12-23T23:19:21.347Z,61.64
2022-12-23T23:21:50.462Z,60.85
2022-12-23T23:24:19.261Z,60.51
2022-12-23T23:26:48.154Z,60.91
2022-12-23T23:29:16.856Z,60.83
2022-12-23T23:31:45.875Z,60.61
2022-12-23T23:34:15.073Z,60.18
2022-12-23T23:36:44.041Z,60.10
2022-12-23T23:39:14.226Z,60.00
2022-12-23T23:41:45.016Z,60.53
2022-12-23T23:44:13.840Z,60.37
2022-12-23T23:46:42.792Z,58.75
2022-12-23T23:49:11.683Z,58.81
2022-12-23T23:51:42.573Z,59.65
2022-12-23T23:54:11.676Z,60.13
2022-12-23T23:56:40.374Z,60.91
2022-12-23T23:59:10.316Z,60.61
